Time;durP1;ratioP1;P1;durP2;ratioP2;P2;SDS_P1;SDS_P2;PMS_P1;PMS_P2;Temp;Humidity;BMP_temperature;BMP_pressure;BME280_temperature;BME280_humidity;BME280_pressure;Samples;Min_cycle;Max_cycle;Signal;HPM_P1;HPM_P2
2021/07/07 00:00:18;;;;;;;7.93;5.40;;;;;;;24.97;44.83;99226.25;5113601;27;20565;-72
2021/07/07 00:02:44;;;;;;;7.25;5.45;;;;;;;25.07;44.57;99218.72;5119089;27;20029;-72
2021/07/07 00:05:12;;;;;;;9.38;5.70;;;;;;;25.04;44.64;99226.13;5123118;27;20500;-72
2021/07/07 00:07:37;;;;;;;11.88;5.93;;;;;;;24.98;44.47;99221.34;5117022;27;20035;-72
2021/07/07 00:10:06;;;;;;;7.95;5.10;;;;;;;24.92;44.98;99221.06;5116800;27;20114;-72
2021/07/07 00:12:31;;;;;;;10.50;5.38;;;;;;;25.07;44.51;99225.22;5129993;27;20043;-72
2021/07/07 00:14:58;;;;;;;8.35;5.78;;;;;;;24.92;44.73;99219.03;5125065;27;20070;-72
2021/07/07 00:17:23;;;;;;;5.60;5.10;;;;;;;25.08;44.21;99215.38;5116373;27;20028;-72
2021/07/07 00:19:49;;;;;;;8.00;5.68;;;;;;;24.97;44.62;99217.66;5113519;27;20026;-71
2021/07/07 00:22:15;;;;;;;5.88;5.28;;;;;;;24.85;44.99;99213.44;5113618;27;20027;-72
2021/07/07 00:24:41;;;;;;;7.80;5.53;;;;;;;24.89;44.81;99219.88;5111913;28;20165;-72
2021/07/07 00:27:07;;;;;;;7.20;5.60;;;;;;;24.78;44.91;99213.56;5110641;27;20436;-72
2021/07/07 00:29:33;;;;;;;8.70;5.93;;;;;;;24.73;45.29;99225.50;5124415;27;20020;-72
2021/07/07 00:31:58;;;;;;;10.88;7.13;;;;;;;24.71;44.44;99225.13;5133702;27;20038;-72
2021/07/07 00:34:27;;;;;;;6.32;5.70;;;;;;;24.75;44.61;99232.41;5133670;27;20019;-72
2021/07/07 00:36:52;;;;;;;6.50;5.18;;;;;;;24.72;44.66;99230.41;5113521;27;20550;-72
2021/07/07 00:39:18;;;;;;;8.15;5.45;;;;;;;24.80;44.50;99231.13;5132196;27;20031;-72
2021/07/07 00:41:43;;;;;;;6.65;5.72;;;;;;;24.77;44.33;99223.41;5132153;27;20067;-72
2021/07/07 00:44:09;;;;;;;6.03;5.43;;;;;;;24.79;44.19;99232.34;5128619;27;20027;-72
2021/07/07 00:46:34;;;;;;;6.45;5.85;;;;;;;24.71;45.22;99243.09;5117203;27;20057;-71
2021/07/07 00:49:00;;;;;;;6.10;5.50;;;;;;;24.71;45.00;99240.22;5133172;27;20027;-72
2021/07/07 00:51:26;;;;;;;7.47;5.95;;;;;;;24.67;45.38;99236.63;5132169;27;20107;-72
2021/07/07 00:53:55;;;;;;;7.63;5.88;;;;;;;24.58;46.72;99240.06;5119576;27;20062;-72
2021/07/07 00:56:22;;;;;;;6.03;5.43;;;;;;;24.57;46.45;99243.34;5130694;27;20027;-72
2021/07/07 00:58:52;;;;;;;9.07;6.07;;;;;;;24.56;46.09;99244.59;5133136;27;20080;-72
2021/07/07 01:01:18;;;;;;;6.90;5.57;;;;;;;24.76;45.28;99242.59;5131913;27;20413;-72
2021/07/07 01:03:43;;;;;;;5.93;5.43;;;;;;;24.51;45.48;99240.19;5116290;27;20027;-72
2021/07/07 01:06:09;;;;;;;10.27;5.75;;;;;;;24.59;45.82;99249.44;5123963;27;20035;-71
2021/07/07 01:08:34;;;;;;;5.97;5.38;;;;;;;24.73;45.40;99249.16;5128975;27;20027;-71
2021/07/07 01:10:59;;;;;;;9.75;5.75;;;;;;;24.47;46.28;99245.97;5123422;27;20080;-71
2021/07/07 01:13:25;;;;;;;8.43;5.60;;;;;;;24.55;45.65;99243.78;5109322;27;20562;-71
2021/07/07 01:15:54;;;;;;;10.02;6.07;;;;;;;24.43;45.70;99245.25;5112994;27;20019;-71
2021/07/07 01:18:20;;;;;;;7.40;5.80;;;;;;;24.13;46.44;99240.47;5114096;27;20027;-72
2021/07/07 01:20:45;;;;;;;6.60;5.38;;;;;;;24.18;45.82;99251.38;5110566;27;20032;-72
2021/07/07 01:23:11;;;;;;;6.00;5.40;;;;;;;24.18;45.37;99240.78;5104404;27;20028;-72
2021/07/07 01:25:39;;;;;;;6.75;5.47;;;;;;;24.07;45.47;99251.56;5106761;27;20027;-72
2021/07/07 01:28:06;;;;;;;8.85;5.20;;;;;;;24.13;45.61;99249.81;5111870;27;20036;-71
2021/07/07 01:30:33;;;;;;;8.40;5.45;;;;;;;24.11;45.51;99249.47;5128252;27;20020;-72
2021/07/07 01:32:59;;;;;;;7.30;5.68;;;;;;;24.19;45.43;99247.28;5129196;27;20111;-72
2021/07/07 01:35:26;;;;;;;9.00;5.63;;;;;;;23.93;46.48;99244.81;5126606;27;20023;-72
2021/07/07 01:37:53;;;;;;;5.93;5.32;;;;;;;24.18;46.28;99237.91;5127728;27;20033;-72
2021/07/07 01:40:21;;;;;;;10.98;5.70;;;;;;;24.22;46.41;99241.50;5115957;27;20027;-72
2021/07/07 01:42:47;;;;;;;9.63;5.65;;;;;;;24.14;47.15;99239.22;5126681;27;20050;-72
2021/07/07 01:45:13;;;;;;;7.63;5.80;;;;;;;24.09;47.67;99244.19;5124526;27;20023;-72
2021/07/07 01:47:39;;;;;;;5.95;5.22;;;;;;;23.93;48.13;99244.81;5124102;27;20404;-72
2021/07/07 01:50:08;;;;;;;6.10;5.50;;;;;;;23.66;48.32;99253.41;5125649;27;20027;-72
2021/07/07 01:52:34;;;;;;;12.77;5.78;;;;;;;23.80;48.42;99258.09;5122051;27;20047;-72
2021/07/07 01:55:00;;;;;;;9.70;5.70;;;;;;;23.71;48.80;99270.03;5124333;27;20027;-71
2021/07/07 01:57:26;;;;;;;7.93;5.75;;;;;;;23.87;49.07;99252.25;5113317;27;20036;-72
2021/07/07 01:59:52;;;;;;;10.15;5.85;;;;;;;23.80;48.63;99272.38;5117227;27;20046;-72
2021/07/07 02:02:17;;;;;;;8.50;6.40;;;;;;;23.89;48.77;99268.97;5118515;27;20028;-72
2021/07/07 02:04:43;;;;;;;16.90;6.63;;;;;;;23.92;47.25;99270.94;5121362;27;20035;-71
2021/07/07 02:07:08;;;;;;;7.10;5.63;;;;;;;23.63;47.85;99269.31;5119464;27;20035;-72
2021/07/07 02:09:33;;;;;;;14.35;6.40;;;;;;;23.58;48.16;99266.16;5117302;27;20031;-72
2021/07/07 02:11:59;;;;;;;8.05;6.78;;;;;;;23.59;47.90;99273.47;5111686;27;20450;-71
2021/07/07 02:14:24;;;;;;;17.08;7.10;;;;;;;23.54;48.29;99266.22;5115235;27;20144;-71
2021/07/07 02:16:50;;;;;;;24.48;7.40;;;;;;;23.40;48.27;99270.84;5117759;27;20036;-72
2021/07/07 02:19:15;;;;;;;12.05;5.97;;;;;;;23.42;48.25;99274.13;5113673;27;20040;-72
2021/07/07 02:21:41;;;;;;;11.88;6.20;;;;;;;23.44;48.17;99273.66;5118000;27;20499;-72
2021/07/07 02:24:07;;;;;;;12.27;6.57;;;;;;;23.41;47.87;99277.38;5113924;27;20085;-71
2021/07/07 02:26:32;;;;;;;16.40;6.50;;;;;;;23.36;47.99;99278.66;5115316;27;20123;-72
2021/07/07 02:28:58;;;;;;;10.93;7.68;;;;;;;23.18;48.34;99278.06;5114661;27;20118;-71
2021/07/07 02:31:27;;;;;;;9.32;6.55;;;;;;;23.13;48.45;99282.19;5103710;27;20557;-72
2021/07/07 02:33:52;;;;;;;14.10;6.38;;;;;;;23.23;48.04;99277.59;5109440;28;20118;-71
2021/07/07 02:36:18;;;;;;;11.85;6.88;;;;;;;23.17;48.18;99271.53;5118396;27;20027;-71
2021/07/07 02:38:43;;;;;;;17.98;8.23;;;;;;;22.99;48.72;99274.63;5119833;27;20023;-71
2021/07/07 02:41:09;;;;;;;14.73;7.13;;;;;;;22.97;48.73;99285.66;5125458;28;20051;-74
2021/07/07 02:43:34;;;;;;;13.95;7.40;;;;;;;22.88;48.82;99283.31;5121798;27;20048;-73
2021/07/07 02:46:00;;;;;;;9.10;6.20;;;;;;;22.78;49.19;99285.03;5113205;28;20092;-72
2021/07/07 02:48:25;;;;;;;7.82;6.55;;;;;;;22.80;49.28;99281.75;5114524;28;20692;-76
2021/07/07 02:50:51;;;;;;;11.43;6.80;;;;;;;22.83;49.11;99293.13;5109576;28;20110;-72
2021/07/07 02:53:18;;;;;;;13.48;7.13;;;;;;;22.81;49.11;99287.03;5102991;28;20031;-75
2021/07/07 02:55:44;;;;;;;17.33;8.07;;;;;;;22.76;49.35;99290.34;5113467;28;20051;-72
2021/07/07 02:58:11;;;;;;;13.07;6.90;;;;;;;22.69;49.53;99287.59;5106509;28;20095;-72
2021/07/07 03:00:48;;;;;;;10.60;6.65;;;;;;;22.93;48.99;99291.38;5122656;27;20031;-76
2021/07/07 03:03:25;;;;;;;16.35;7.63;;;;;;;23.09;48.45;99296.50;5108115;28;20043;-76
2021/07/07 03:05:54;;;;;;;21.05;6.78;;;;;;;22.93;48.95;99297.09;5117417;28;20106;-75
2021/07/07 03:08:22;;;;;;;8.63;6.65;;;;;;;22.66;49.47;99294.09;5130397;27;20027;-79
2021/07/07 03:10:49;;;;;;;26.17;7.43;;;;;;;22.79;49.29;99295.19;5130847;27;20035;-70
2021/07/07 03:13:16;;;;;;;13.35;7.18;;;;;;;22.91;48.61;99295.88;5114164;28;20051;-71
2021/07/07 03:15:42;;;;;;;12.80;6.85;;;;;;;22.82;48.73;99308.63;5113570;28;20020;-71
2021/07/07 03:18:09;;;;;;;14.43;7.40;;;;;;;22.88;48.80;99305.28;5117531;28;20039;-70
2021/07/07 03:20:36;;;;;;;8.05;5.93;;;;;;;22.94;48.41;99310.09;5117482;27;20024;-70
2021/07/07 03:23:04;;;;;;;13.07;6.60;;;;;;;22.91;48.83;99310.13;5108589;28;20434;-70
2021/07/07 03:25:29;;;;;;;29.42;8.45;;;;;;;22.94;48.67;99310.09;5115039;27;20015;-71
2021/07/07 03:27:55;;;;;;;13.80;6.63;;;;;;;22.89;48.63;99321.16;5115775;28;20406;-70
2021/07/07 03:30:21;;;;;;;14.35;6.53;;;;;;;22.70;49.48;99312.00;5122845;28;20383;-70
2021/07/07 03:32:47;;;;;;;16.55;7.47;;;;;;;22.61;50.01;99309.63;5112281;28;20040;-71
2021/07/07 03:35:13;;;;;;;10.80;6.68;;;;;;;22.79;49.67;99306.59;5120745;28;20522;-71
2021/07/07 03:37:38;;;;;;;11.50;6.53;;;;;;;22.88;49.10;99316.69;5126206;28;20403;-70
2021/07/07 03:40:05;;;;;;;8.65;6.38;;;;;;;22.88;49.17;99305.28;5111562;27;20081;-70
2021/07/07 03:42:31;;;;;;;14.52;7.13;;;;;;;22.78;49.58;99312.72;5112204;28;20428;-70
2021/07/07 03:44:58;;;;;;;9.00;6.88;;;;;;;22.76;49.52;99310.28;5111500;28;20024;-71
2021/07/07 03:47:23;;;;;;;6.97;6.28;;;;;;;22.91;49.03;99321.53;5109931;28;20039;-71
2021/07/07 03:49:49;;;;;;;18.30;6.90;;;;;;;22.85;49.23;99324.88;5111440;28;20080;-70
2021/07/07 03:52:15;;;;;;;14.48;6.53;;;;;;;22.95;49.06;99325.19;5112370;28;20040;-70
2021/07/07 03:54:41;;;;;;;21.40;9.20;;;;;;;22.77;49.29;99331.88;5121676;28;20030;-71
2021/07/07 03:57:06;;;;;;;21.42;8.15;;;;;;;22.70;49.85;99326.25;5119254;27;20035;-70
2021/07/07 03:59:32;;;;;;;15.85;7.68;;;;;;;22.65;50.30;99333.22;5117394;27;20075;-70
2021/07/07 04:01:57;;;;;;;8.75;6.60;;;;;;;22.63;50.21;99332.00;5125221;27;20035;-70
2021/07/07 04:04:23;;;;;;;15.75;6.88;;;;;;;22.65;50.27;99333.22;5115324;27;20027;-70
2021/07/07 04:06:48;;;;;;;9.52;7.18;;;;;;;22.71;50.14;99342.13;5121498;27;20035;-71
2021/07/07 04:09:14;;;;;;;14.63;7.25;;;;;;;22.79;50.24;99337.94;5107780;27;20492;-70
2021/07/07 04:11:41;;;;;;;10.68;7.32;;;;;;;22.78;50.09;99344.88;5118097;27;20073;-70
2021/07/07 04:14:08;;;;;;;14.55;7.38;;;;;;;22.86;50.64;99345.63;5114709;27;20027;-70
2021/07/07 04:16:34;;;;;;;12.73;6.90;;;;;;;22.88;51.23;99342.34;5110801;27;20296;-70
2021/07/07 04:18:59;;;;;;;12.85;6.75;;;;;;;22.88;51.34;99350.91;5123678;27;20034;-71
2021/07/07 04:21:26;;;;;;;9.20;6.75;;;;;;;22.86;51.65;99348.47;5113178;27;20069;-70
2021/07/07 04:23:51;;;;;;;15.68;7.13;;;;;;;22.87;51.65;99344.41;5125491;27;20019;-70
2021/07/07 04:26:17;;;;;;;8.30;6.55;;;;;;;23.06;50.82;99342.16;5113149;27;20092;-71
2021/07/07 04:28:42;;;;;;;12.50;7.15;;;;;;;23.09;49.52;99339.28;5129621;27;20023;-71
2021/07/07 04:31:07;;;;;;;20.55;13.60;;;;;;;23.02;50.04;99347.09;5133723;27;20035;-70
2021/07/07 04:33:33;;;;;;;16.83;12.70;;;;;;;23.06;50.09;99340.13;5132053;27;20027;-70
2021/07/07 04:35:58;;;;;;;18.63;12.77;;;;;;;23.04;50.91;99342.59;5109321;27;20104;-70
2021/07/07 04:38:24;;;;;;;12.32;8.88;;;;;;;23.13;50.71;99347.81;5132632;27;20027;-70
2021/07/07 04:40:49;;;;;;;9.48;7.82;;;;;;;22.93;51.82;99339.06;5130556;27;20027;-71
2021/07/07 04:43:15;;;;;;;8.65;7.45;;;;;;;22.84;51.64;99339.53;5120756;27;20040;-71
2021/07/07 04:45:40;;;;;;;12.93;7.85;;;;;;;22.87;52.16;99344.41;5112883;27;20023;-71
2021/07/07 04:48:06;;;;;;;8.88;7.68;;;;;;;23.05;51.34;99337.69;5119656;27;20038;-71
2021/07/07 04:50:31;;;;;;;11.77;7.10;;;;;;;23.03;52.07;99352.38;5116776;27;20098;-71
2021/07/07 04:52:57;;;;;;;10.90;7.32;;;;;;;22.93;52.53;99350.47;5111950;27;20126;-71
2021/07/07 04:55:22;;;;;;;12.52;7.63;;;;;;;22.93;53.04;99342.72;5112638;27;20032;-71
2021/07/07 04:57:48;;;;;;;16.42;8.90;;;;;;;22.94;52.86;99343.53;5122642;27;20049;-71
2021/07/07 05:00:22;;;;;;;10.65;7.75;;;;;;;22.94;51.79;99352.88;5122855;27;20035;-71
2021/07/07 05:02:49;;;;;;;11.95;8.35;;;;;;;23.10;52.10;99352.31;5105449;27;20036;-72
2021/07/07 05:05:17;;;;;;;11.65;7.68;;;;;;;23.28;51.61;99355.00;5132676;27;20442;-71
2021/07/07 05:07:44;;;;;;;10.23;8.43;;;;;;;23.46;50.72;99356.81;5123755;27;20110;-71
2021/07/07 05:10:11;;;;;;;10.63;8.13;;;;;;;23.55;50.39;99348.53;5126456;27;20023;-71
2021/07/07 05:12:38;;;;;;;11.13;7.78;;;;;;;23.68;49.69;99354.50;5121314;27;20096;-71
2021/07/07 05:15:05;;;;;;;8.23;6.85;;;;;;;23.72;49.77;99356.50;5130558;27;20488;-71
2021/07/07 05:17:31;;;;;;;8.75;7.85;;;;;;;23.81;49.69;99354.72;5131617;27;20031;-71
2021/07/07 05:19:58;;;;;;;13.85;7.55;;;;;;;23.88;49.82;99356.66;5120672;27;20038;-72
2021/07/07 05:22:24;;;;;;;14.95;8.18;;;;;;;23.91;50.15;99352.16;5120288;27;20031;-71
2021/07/07 05:24:50;;;;;;;9.95;7.72;;;;;;;24.16;49.56;99360.38;5122901;27;20016;-71
2021/07/07 05:27:15;;;;;;;10.68;7.25;;;;;;;24.37;47.84;99356.38;5127953;27;20053;-71
2021/07/07 05:29:41;;;;;;;14.65;7.32;;;;;;;24.43;46.58;99361.59;5111018;27;20027;-71
2021/07/07 05:32:08;;;;;;;13.07;6.85;;;;;;;24.43;45.87;99364.44;5126456;27;20065;-71
2021/07/07 05:34:35;;;;;;;15.10;7.03;;;;;;;24.49;46.61;99369.25;5132397;27;20100;-72
2021/07/07 05:37:00;;;;;;;11.82;6.45;;;;;;;24.72;45.03;99366.84;5132615;27;20118;-71
2021/07/07 05:39:26;;;;;;;10.00;7.53;;;;;;;24.93;45.72;99366.50;5108539;27;20023;-71
2021/07/07 05:41:51;;;;;;;9.63;7.18;;;;;;;25.02;44.72;99362.25;5132172;27;20081;-72
2021/07/07 05:44:17;;;;;;;7.25;6.47;;;;;;;24.91;44.59;99368.19;5132053;27;20412;-72
2021/07/07 05:46:42;;;;;;;9.13;6.50;;;;;;;25.08;45.48;99363.38;5118807;27;20024;-71
2021/07/07 05:49:08;;;;;;;9.07;6.47;;;;;;;25.29;44.91;99362.13;5106079;27;20046;-71
2021/07/07 05:51:33;;;;;;;9.82;7.53;;;;;;;25.27;44.86;99370.34;5126693;27;20447;-72
2021/07/07 05:53:59;;;;;;;7.35;6.65;;;;;;;25.52;44.33;99371.94;5123635;27;20028;-71
2021/07/07 05:56:27;;;;;;;7.90;7.03;;;;;;;25.56;44.75;99371.88;5121438;27;20031;-72
2021/07/07 05:58:52;;;;;;;7.38;6.45;;;;;;;25.61;42.93;99372.16;5108926;27;20030;-72
2021/07/07 06:01:18;;;;;;;10.07;7.45;;;;;;;25.52;43.50;99374.81;5099883;27;20031;-71
2021/07/07 06:03:43;;;;;;;20.30;7.00;;;;;;;25.52;43.50;99374.81;5110218;27;20026;-71
2021/07/07 06:06:09;;;;;;;12.80;7.38;;;;;;;25.67;45.77;99369.59;5101684;27;20028;-72
2021/07/07 06:08:36;;;;;;;7.80;7.00;;;;;;;25.87;43.71;99372.41;5099447;27;20024;-72
2021/07/07 06:11:02;;;;;;;23.38;8.65;;;;;;;25.83;43.90;99371.69;5115357;27;20171;-71
2021/07/07 06:13:27;;;;;;;13.88;8.00;;;;;;;26.01;43.72;99379.91;5128836;27;20528;-72
2021/07/07 06:15:53;;;;;;;10.07;8.15;;;;;;;26.07;42.69;99371.59;5113846;27;20016;-71
2021/07/07 06:18:18;;;;;;;10.55;7.72;;;;;;;26.13;43.40;99366.94;5121469;27;20435;-71
2021/07/07 06:20:45;;;;;;;10.38;7.65;;;;;;;26.38;43.24;99370.50;5117157;27;20064;-71
2021/07/07 06:23:10;;;;;;;8.60;7.70;;;;;;;26.48;43.53;99378.00;5099988;27;20440;-72
2021/07/07 06:25:36;;;;;;;19.08;8.07;;;;;;;26.46;42.87;99387.06;5117694;27;20103;-73
2021/07/07 06:28:02;;;;;;;17.95;6.78;;;;;;;26.54;42.13;99390.56;5125158;27;20031;-75
2021/07/07 06:30:29;;;;;;;11.13;6.80;;;;;;;26.49;41.35;99385.38;5123555;27;20030;-75
2021/07/07 06:32:57;;;;;;;12.13;7.22;;;;;;;26.49;42.04;99382.50;5113412;27;20032;-73
2021/07/07 06:35:23;;;;;;;16.02;8.00;;;;;;;26.72;43.21;99384.38;5117996;28;20076;-71
2021/07/07 06:37:50;;;;;;;23.80;8.35;;;;;;;26.82;43.02;99388.22;5129216;27;20026;-74
2021/07/07 06:40:17;;;;;;;21.73;8.15;;;;;;;26.93;43.07;99382.25;5128948;27;20027;-78
2021/07/07 06:42:43;;;;;;;11.15;7.55;;;;;;;26.93;43.86;99382.25;5106717;28;20055;-75
2021/07/07 06:45:10;;;;;;;30.58;9.32;;;;;;;27.27;43.71;99383.78;5108525;28;20038;-72
2021/07/07 06:47:36;;;;;;;12.60;7.68;;;;;;;27.30;41.86;99376.31;5112364;28;20039;-71
2021/07/07 06:50:05;;;;;;;12.13;8.82;;;;;;;27.41;42.20;99387.50;5117651;27;20031;-75
2021/07/07 06:52:30;;;;;;;11.73;8.60;;;;;;;27.49;42.29;99388.91;5111215;28;20542;-72
2021/07/07 06:54:56;;;;;;;11.23;8.07;;;;;;;27.68;42.22;99387.16;5115561;28;20094;-72
2021/07/07 06:57:22;;;;;;;10.98;8.23;;;;;;;27.73;42.69;99388.66;5116007;28;20028;-71
2021/07/07 06:59:47;;;;;;;9.48;8.57;;;;;;;27.85;40.59;99381.34;5120473;28;20023;-71
2021/07/07 07:02:12;;;;;;;10.80;8.20;;;;;;;27.85;41.18;99384.22;5106127;28;20031;-71
2021/07/07 07:04:38;;;;;;;13.65;9.38;;;;;;;28.09;39.63;99386.78;5110991;28;20031;-72
2021/07/07 07:07:03;;;;;;;11.82;7.55;;;;;;;27.92;40.99;99378.22;5110254;28;20031;-72
2021/07/07 07:09:29;;;;;;;11.68;6.97;;;;;;;27.83;39.46;99384.66;5092340;28;20020;-71
2021/07/07 07:11:54;;;;;;;8.23;6.97;;;;;;;27.97;39.89;99385.50;5112908;27;20396;-72
2021/07/07 07:14:20;;;;;;;8.35;7.45;;;;;;;28.05;40.01;99386.88;5125335;27;20023;-71
2021/07/07 07:16:45;;;;;;;7.97;7.18;;;;;;;28.17;39.42;99382.41;5126753;28;20035;-72
2021/07/07 07:19:14;;;;;;;12.48;7.53;;;;;;;28.20;38.99;99378.66;5125186;28;20023;-71
2021/07/07 07:21:40;;;;;;;8.30;6.88;;;;;;;28.25;38.69;99383.03;5114640;28;20030;-72
2021/07/07 07:24:06;;;;;;;9.40;6.38;;;;;;;28.48;37.80;99384.72;5125968;28;20420;-72
2021/07/07 07:26:32;;;;;;;10.75;6.38;;;;;;;28.61;38.19;99383.91;5123362;27;20027;-72
2021/07/07 07:28:59;;;;;;;8.85;7.10;;;;;;;28.72;37.02;99376.53;5119870;28;20477;-71
2021/07/07 07:31:24;;;;;;;11.80;6.40;;;;;;;28.72;37.89;99384.34;5104560;28;20032;-72
2021/07/07 07:33:50;;;;;;;10.77;7.13;;;;;;;28.82;37.89;99373.78;5129717;27;20088;-72
2021/07/07 07:36:16;;;;;;;11.82;7.18;;;;;;;28.89;37.51;99385.06;5134589;27;20469;-71
2021/07/07 07:38:45;;;;;;;11.48;7.25;;;;;;;28.88;37.41;99388.38;5114566;27;20035;-72
2021/07/07 07:41:11;;;;;;;10.30;6.73;;;;;;;29.03;38.69;99383.75;5115388;27;20028;-72
2021/07/07 07:43:37;;;;;;;14.55;9.70;;;;;;;29.22;35.79;99387.59;5126579;27;20066;-71
2021/07/07 07:46:03;;;;;;;10.18;8.70;;;;;;;29.36;35.66;99386.25;5132881;27;20023;-72
2021/07/07 07:48:28;;;;;;;15.57;9.45;;;;;;;29.47;35.89;99380.16;5119654;27;20472;-72
2021/07/07 07:50:55;;;;;;;10.75;7.22;;;;;;;29.50;35.94;99379.19;5122769;27;20470;-71
2021/07/07 07:53:21;;;;;;;13.48;9.80;;;;;;;29.55;35.32;99387.22;5124912;27;20544;-71
2021/07/07 07:55:47;;;;;;;8.68;7.63;;;;;;;29.69;34.91;99385.91;5110810;28;20039;-71
2021/07/07 07:58:18;;;;;;;9.50;6.85;;;;;;;29.62;35.55;99382.47;5112321;27;20030;-73
2021/07/07 08:00:45;;;;;;;9.93;8.05;;;;;;;29.59;36.81;99386.31;5129066;27;20141;-73
2021/07/07 08:03:11;;;;;;;11.77;7.35;;;;;;;29.90;36.07;99377.69;5130825;27;20066;-72
2021/07/07 08:05:36;;;;;;;9.10;7.13;;;;;;;30.06;34.48;99373.00;5100904;27;20118;-74
2021/07/07 08:08:02;;;;;;;7.70;6.90;;;;;;;30.18;35.03;99379.97;5100016;27;20039;-75
2021/07/07 08:10:29;;;;;;;8.00;7.10;;;;;;;30.45;35.30;99378.47;5095404;27;20505;-75
2021/07/07 08:12:55;;;;;;;13.65;7.53;;;;;;;30.60;35.06;99372.91;5098956;27;20031;-75
2021/07/07 08:15:21;;;;;;;8.30;7.28;;;;;;;30.85;33.76;99377.63;5098259;27;20024;-75
2021/07/07 08:17:47;;;;;;;9.05;6.80;;;;;;;30.90;35.78;99379.06;5094784;27;20032;-75
2021/07/07 08:20:13;;;;;;;10.80;6.30;;;;;;;31.08;33.70;99372.53;5111553;27;20039;-74
2021/07/07 08:22:39;;;;;;;8.90;6.20;;;;;;;31.26;34.46;99379.63;5104629;27;20054;-75
2021/07/07 08:25:07;;;;;;;7.47;6.45;;;;;;;31.22;33.56;99383.47;5104511;27;20396;-75
2021/07/07 08:27:33;;;;;;;6.57;5.97;;;;;;;31.20;33.46;99380.22;5092583;27;20099;-75
2021/07/07 08:29:58;;;;;;;7.30;6.10;;;;;;;31.32;32.81;99384.28;5107039;27;20244;-74
2021/07/07 08:32:24;;;;;;;11.02;6.70;;;;;;;31.42;33.29;99392.91;5101968;27;20051;-75
2021/07/07 08:34:50;;;;;;;11.80;6.43;;;;;;;31.45;32.80;99387.00;5111532;27;20485;-73
2021/07/07 08:37:15;;;;;;;7.43;6.13;;;;;;;31.49;32.17;99392.59;5098580;27;20040;-71
2021/07/07 08:39:42;;;;;;;8.00;6.53;;;;;;;31.57;33.34;99393.91;5104662;28;20544;-71
2021/07/07 08:42:08;;;;;;;11.60;7.78;;;;;;;31.62;33.34;99392.44;5104244;27;20071;-72
2021/07/07 08:44:34;;;;;;;9.48;7.28;;;;;;;31.70;32.77;99387.91;5116977;27;20058;-72
2021/07/07 08:47:00;;;;;;;9.70;6.68;;;;;;;31.74;32.72;99391.47;5118424;27;20063;-72
2021/07/07 08:49:25;;;;;;;11.60;7.03;;;;;;;31.94;32.35;99390.16;5115260;27;20068;-72
2021/07/07 08:51:51;;;;;;;9.68;6.55;;;;;;;31.85;32.10;99385.19;5103126;27;20126;-71
2021/07/07 08:54:18;;;;;;;9.48;6.95;;;;;;;31.57;32.33;99395.97;5104350;27;20036;-71
2021/07/07 08:56:45;;;;;;;8.77;6.18;;;;;;;31.74;32.87;99391.47;5093502;27;20075;-71
2021/07/07 08:59:12;;;;;;;10.63;6.40;;;;;;;31.98;32.52;99393.69;5097299;27;20405;-71
2021/07/07 09:02:07;;;;;;;10.85;7.03;;;;;;;31.97;32.34;99394.94;5108063;27;20409;-71
2021/07/07 09:04:34;;;;;;;10.65;6.25;;;;;;;31.91;32.48;99405.59;5109124;27;20023;-73
2021/07/07 09:07:12;;;;;;;9.98;6.68;;;;;;;31.93;33.03;99386.47;5096327;27;20114;-72
2021/07/07 09:09:43;;;;;;;7.00;6.30;;;;;;;32.24;32.36;99393.28;5099437;27;20027;-72
2021/07/07 09:12:15;;;;;;;6.95;5.35;;;;;;;32.50;31.30;99395.75;5101887;27;20031;-72
2021/07/07 09:14:43;;;;;;;8.75;6.28;;;;;;;32.67;31.90;99396.16;5102595;27;20024;-73
2021/07/07 09:17:13;;;;;;;6.78;5.18;;;;;;;32.61;30.00;99392.31;5099048;27;20460;-72
2021/07/07 09:19:40;;;;;;;7.13;5.50;;;;;;;32.67;31.13;99389.56;5097501;27;20074;-71
2021/07/07 09:22:07;;;;;;;8.40;5.53;;;;;;;32.84;32.01;99393.66;5091762;28;20035;-73
2021/07/07 09:24:35;;;;;;;7.43;5.47;;;;;;;33.03;30.84;99393.53;5097692;27;20028;-72
2021/07/07 09:27:08;;;;;;;7.10;6.15;;;;;;;33.13;31.43;99395.06;5098174;27;20031;-72
2021/07/07 09:29:35;;;;;;;8.52;5.53;;;;;;;33.14;30.68;99393.78;5103347;27;20024;-72
2021/07/07 09:32:29;;;;;;;7.05;5.53;;;;;;;33.20;30.60;99396.78;5102538;27;20383;-72
2021/07/07 09:35:03;;;;;;;13.20;6.88;;;;;;;33.36;29.87;99386.03;5104324;27;20031;-72
2021/07/07 09:37:45;;;;;;;6.57;5.72;;;;;;;33.33;31.42;99390.75;5101536;27;20030;-73
2021/07/07 09:40:12;;;;;;;7.18;5.93;;;;;;;33.49;30.77;99389.50;5116883;27;20027;-72
2021/07/07 09:42:39;;;;;;;10.93;6.53;;;;;;;33.67;30.38;99391.44;5107082;27;20051;-73
2021/07/07 09:45:11;;;;;;;9.60;5.82;;;;;;;33.38;27.78;99390.03;5102892;27;20032;-75
2021/07/07 09:47:39;;;;;;;5.68;5.18;;;;;;;33.39;29.86;99397.44;5098476;27;20039;-72
2021/07/07 09:50:05;;;;;;;10.13;5.15;;;;;;;33.65;28.82;99390.31;5111508;27;20020;-72
2021/07/07 09:52:31;;;;;;;6.20;5.38;;;;;;;33.48;29.50;99393.69;5110448;27;20028;-74
2021/07/07 09:55:00;;;;;;;5.95;4.72;;;;;;;33.44;29.67;99382.28;5090737;28;20028;-75
2021/07/07 09:57:26;;;;;;;5.88;5.00;;;;;;;33.71;28.75;99389.13;5092784;27;20028;-73
2021/07/07 09:59:51;;;;;;;5.45;4.95;;;;;;;33.76;28.45;99384.75;5102739;27;20042;-74
2021/07/07 10:02:17;;;;;;;15.77;5.05;;;;;;;33.85;28.59;99383.84;5111774;27;20028;-73
2021/07/07 10:04:43;;;;;;;4.97;4.45;;;;;;;33.50;27.05;99378.72;5108024;28;20099;-72
2021/07/07 10:07:11;;;;;;;8.88;4.45;;;;;;;33.38;27.01;99380.56;5115028;27;20096;-72
2021/07/07 10:09:44;;;;;;;5.45;4.72;;;;;;;33.66;28.90;99383.22;5110354;27;20389;-72
2021/07/07 10:12:10;;;;;;;5.90;4.07;;;;;;;33.82;28.24;99384.84;5112580;27;20047;-72
2021/07/07 10:14:35;;;;;;;5.28;4.57;;;;;;;33.89;26.96;99384.44;5113318;27;20444;-72
2021/07/07 10:17:01;;;;;;;7.25;4.32;;;;;;;33.97;26.28;99385.63;5112914;27;20031;-72
2021/07/07 10:19:27;;;;;;;7.97;4.70;;;;;;;33.79;27.75;99380.84;5129794;27;20031;-72
2021/07/07 10:21:55;;;;;;;11.50;4.47;;;;;;;34.00;27.50;99375.94;5124091;27;20433;-72
2021/07/07 10:24:25;;;;;;;6.80;4.82;;;;;;;33.65;27.27;99385.31;5100704;27;20055;-72
2021/07/07 10:26:52;;;;;;;;;;;;;;;33.69;28.47;99383.03;5102438;27;20077;-72
2021/07/07 10:29:18;;;;;;;9.73;4.35;;;;;;;34.03;29.16;99377.06;5100178;27;19916;-72
2021/07/07 10:31:55;;;;;;;10.95;4.50;;;;;;;34.36;27.30;99378.09;5093203;27;20028;-72
2021/07/07 10:34:23;;;;;;;5.40;4.70;;;;;;;34.52;26.18;99383.41;5099060;27;20085;-72
2021/07/07 10:36:49;;;;;;;10.52;4.75;;;;;;;34.53;26.79;99387.91;5099219;28;20095;-72
2021/07/07 10:39:16;;;;;;;5.68;4.30;;;;;;;34.70;28.26;99373.66;5108318;27;20480;-70
2021/07/07 10:41:41;;;;;;;6.15;4.38;;;;;;;34.82;27.56;99377.50;5103888;28;20553;-73
2021/07/07 10:44:22;;;;;;;7.10;5.13;;;;;;;35.04;27.35;99384.94;5097580;28;20122;-72
2021/07/07 10:46:50;;;;;;;6.43;4.72;;;;;;;34.99;25.61;99379.81;5130755;27;20042;-72
2021/07/07 10:49:27;;;;;;;7.25;4.70;;;;;;;34.96;27.09;99372.13;5108269;27;20032;-72
2021/07/07 10:51:56;;;;;;;9.70;4.80;;;;;;;35.04;26.93;99382.03;5099303;28;20034;-71
2021/07/07 10:54:23;;;;;;;5.13;4.45;;;;;;;34.99;26.51;99374.81;5100168;28;20035;-71
2021/07/07 10:56:50;;;;;;;9.98;5.10;;;;;;;35.03;26.77;99380.44;5092382;28;20074;-71
2021/07/07 10:59:42;;;;;;;5.45;5.03;;;;;;;35.20;26.38;99371.13;5110083;28;20024;-71
2021/07/07 11:02:20;;;;;;;5.85;4.93;;;;;;;35.29;26.78;99376.78;5120066;27;20039;-71
2021/07/07 11:04:51;;;;;;;22.70;5.80;;;;;;;35.44;25.82;99375.88;5118701;28;20038;-71
2021/07/07 11:07:32;;;;;;;6.10;4.63;;;;;;;35.40;24.91;99370.28;5100782;28;20394;-71
2021/07/07 11:10:08;;;;;;;11.23;4.72;;;;;;;35.12;26.26;99365.78;5109328;27;20480;-72
2021/07/07 11:12:39;;;;;;;5.07;4.57;;;;;;;35.30;26.40;99366.75;5098519;27;20032;-71
2021/07/07 11:15:07;;;;;;;5.88;5.35;;;;;;;35.48;27.89;99376.44;5108039;27;20501;-71
2021/07/07 11:17:35;;;;;;;5.60;4.90;;;;;;;35.81;26.95;99360.69;5112211;27;20043;-71
2021/07/07 11:20:06;;;;;;;6.57;4.82;;;;;;;35.83;26.97;99363.88;5098150;27;20035;-71
2021/07/07 11:22:32;;;;;;;7.72;5.45;;;;;;;35.80;26.60;99362.81;5095189;27;20028;-71
2021/07/07 11:24:58;;;;;;;7.68;5.40;;;;;;;36.02;26.95;99357.72;5116624;27;20408;-71
2021/07/07 11:27:24;;;;;;;6.70;4.65;;;;;;;35.88;26.92;99357.34;5117868;27;20034;-72